Melbourne, KY

5:10 PM EDT on October 21, 2014 (GMT -0400)
APRSWXNET Withamsville OH US | Change Station
CLOSE
Current Station
Personal Weather Station
Location: Campsprings, KY
Elevation: 935 ft
Nearby Weather Stations

Elev 935 ft 39.00 °N, 84.30 °W | Updated 50 minutes ago

Overcast
Overcast
52.0 °F
Feels Like 52.0 °F
N
1.0
Wind Variable Wind from North
Gusts 8.0 mph

Today
High -- | Low -- °F
--% Chance of Precip.
Yesterday
High -- | Low -- °F
Precip. -- in
7:52 AM 6:50 PM
Waning Crescent, 4% visible
Pressure 30.09 in
Visibility 10.0 miles
Clouds Few 3600 ft
Mostly Cloudy 5000 ft
Overcast 6000 ft
Dew Point 45.0 °F
Humidity 76%
Rainfall 0.04 in
Snow Depth Not available.
UV 0 out of 12
Pollen 1.50 out of 12
Air Quality Not available.
Flu Activity Sporadic
METAR KLUK 212053Z 34006KT 10SM FEW036 BKN050 OVC060 12/06 A3009 RMK AO2 SLP188 T01220056 53010

More Conditions Fewer Conditions

Pressure 30.09 in
Visibility 10.0 miles
Clouds Few 3600 ft
Mostly Cloudy 5000 ft
Overcast 6000 ft
Dew Point 45.0 °F
Humidity 76%
Rainfall 0.04 in
Snow Depth Not available.
UV 0 out of 12
Pollen 1.50 out of 12
Air Quality Not available.
Flu Activity Sporadic
METAR KLUK 212053Z 34006KT 10SM FEW036 BKN050 OVC060 12/06 A3009 RMK AO2 SLP188 T01220056 53010

More Conditions Fewer Conditions

10-Day Weather Forecast

Almanac

Astronomy

Oct. 21, 2014 Rise Set
Actual Time 7:52 AM EDT 6:50 PM EDT
Civil Twilight 7:25 AM EDT 7:17 PM EDT
Nautical Twilight 6:54 AM EDT 7:48 PM EDT
Astronomical Twilight 6:23 AM EDT 8:19 PM EDT
Moon 5:37 AM EDT 5:42 PM EDT
Length of Visible Light 11h 51m
Length of Day
10h 57m
Tomorrow will be 2m 22s shorter.
Waning Crescent, 4% of the Moon is Illuminated
Today
Waning Crescent
Oct 23
New
Oct 30
First Quarter
Nov 6
Full
Nov 14
Last Quarter

Today's Extremes

State Highs State Lows

Community

WunderPhotos

Upload Photos

1,763,779 photos uploaded!

WunderBlogs® & News

Nearby

Snow Depth

Station Depth Elevation
No new snow has been reported.

Earthquake Activity

City Distance Mag. Time & Date
No recent earthquake activity has been reported nearby.
Minimum magnitude displayed is 2.5.

Coastal Water Temperatures

Place Temperature
No Stations Reporting

Nearby Weather Stations